createdAt,value
2022-11-02T00:01:31.006Z,100.00
2022-11-02T00:03:58.833Z,100.00
2022-11-02T00:06:26.603Z,100.00
2022-11-02T00:08:54.408Z,100.00
2022-11-02T00:11:22.868Z,100.00
2022-11-02T00:13:50.859Z,100.00
2022-11-02T00:16:20.586Z,100.00
2022-11-02T00:18:51.636Z,100.00
2022-11-02T00:21:21.776Z,100.00
2022-11-02T00:23:50.203Z,100.00
2022-11-02T00:26:18.826Z,100.00
2022-11-02T00:28:46.937Z,100.00
2022-11-02T00:31:15.299Z,100.00
2022-11-02T00:33:43.340Z,100.00
2022-11-02T00:36:11.783Z,100.00
2022-11-02T00:38:40.575Z,100.00
2022-11-02T00:41:08.647Z,100.00
2022-11-02T00:43:36.718Z,100.00
2022-11-02T00:46:05.611Z,100.00
2022-11-02T00:48:33.391Z,100.00
2022-11-02T00:51:01.759Z,100.00
2022-11-02T00:53:29.673Z,100.00
2022-11-02T00:55:57.794Z,100.00
2022-11-02T00:58:25.558Z,100.00
2022-11-02T01:00:53.624Z,100.00
2022-11-02T01:03:21.595Z,100.00
2022-11-02T01:05:49.982Z,100.00
2022-11-02T01:08:17.946Z,100.00
2022-11-02T01:10:48.208Z,100.00
2022-11-02T01:13:17.562Z,100.00
2022-11-02T01:15:45.331Z,100.00
2022-11-02T01:18:13.083Z,100.00
2022-11-02T01:20:40.962Z,100.00
2022-11-02T01:23:08.824Z,100.00
2022-11-02T01:25:36.653Z,100.00
2022-11-02T01:28:05.071Z,100.00
2022-11-02T01:30:33.960Z,100.00
2022-11-02T01:33:01.827Z,100.00
2022-11-02T01:35:29.689Z,100.00
2022-11-02T01:37:57.368Z,100.00
2022-11-02T01:40:25.228Z,100.00
2022-11-02T01:42:53.205Z,100.00
2022-11-02T01:45:21.460Z,100.00
2022-11-02T01:47:49.737Z,100.00
2022-11-02T01:50:23.900Z,100.00
2022-11-02T01:52:52.134Z,100.00
2022-11-02T01:55:26.165Z,100.00
2022-11-02T01:58:00.103Z,100.00
2022-11-02T02:00:28.176Z,100.00
2022-11-02T02:03:11.686Z,100.00
2022-11-02T02:05:46.787Z,100.00
2022-11-02T02:08:23.564Z,100.00
2022-11-02T02:10:51.320Z,100.00
2022-11-02T02:13:19.426Z,100.00
2022-11-02T02:15:56.381Z,100.00
2022-11-02T02:18:50.453Z,100.00
2022-11-02T02:22:15.872Z,100.00
2022-11-02T02:24:50.674Z,100.00
2022-11-02T02:27:41.817Z,100.00
2022-11-02T02:30:10.705Z,100.00
2022-11-02T02:33:01.314Z,100.00
2022-11-02T02:35:43.726Z,100.00
2022-11-02T02:38:17.970Z,100.00
2022-11-02T02:40:52.752Z,100.00
2022-11-02T02:43:20.824Z,100.00
2022-11-02T02:46:06.722Z,100.00
2022-11-02T02:48:39.901Z,100.00
2022-11-02T02:51:11.355Z,100.00
2022-11-02T02:53:44.044Z,100.00
2022-11-02T02:56:16.063Z,100.00
2022-11-02T02:59:00.960Z,100.00
2022-11-02T03:01:29.256Z,100.00
2022-11-02T03:03:57.232Z,100.00
2022-11-02T03:06:30.898Z,100.00
2022-11-02T03:09:11.270Z,100.00
2022-11-02T03:11:55.802Z,100.00
2022-11-02T03:14:44.789Z,100.00
2022-11-02T03:17:21.584Z,100.00
2022-11-02T03:20:03.556Z,100.00
2022-11-02T03:22:35.111Z,100.00
2022-11-02T03:25:26.321Z,100.00
2022-11-02T03:28:11.901Z,100.00
2022-11-02T03:30:51.343Z,100.00
2022-11-02T03:33:34.931Z,100.00
2022-11-02T03:36:07.457Z,100.00
2022-11-02T03:38:45.151Z,100.00
2022-11-02T03:41:15.951Z,100.00
2022-11-02T03:43:46.412Z,100.00
2022-11-02T03:46:16.734Z,100.00
2022-11-02T03:48:46.838Z,100.00
2022-11-02T03:51:20.094Z,100.00
2022-11-02T03:53:58.641Z,100.00
2022-11-02T03:56:36.155Z,100.00
2022-11-02T03:59:04.432Z,100.00
2022-11-02T04:01:42.142Z,100.00
2022-11-02T04:04:10.690Z,100.00
2022-11-02T04:06:39.777Z,100.00
2022-11-02T04:09:08.693Z,100.00
2022-11-02T04:11:55.810Z,100.00
2022-11-02T04:14:38.689Z,100.00
2022-11-02T04:19:59.169Z,100.00
2022-11-02T04:22:45.819Z,100.00
2022-11-02T04:25:19.442Z,100.00
2022-11-02T04:28:08.566Z,100.00
2022-11-02T04:30:40.367Z,100.00
2022-11-02T04:33:27.084Z,100.00
2022-11-02T04:36:06.849Z,100.00
2022-11-02T04:38:41.127Z,100.00
2022-11-02T04:41:36.954Z,100.00
2022-11-02T04:44:06.204Z,100.00
2022-11-02T04:46:36.699Z,100.00
2022-11-02T04:49:05.762Z,100.00
2022-11-02T04:51:35.189Z,100.00
2022-11-02T04:54:04.182Z,100.00
2022-11-02T04:56:36.648Z,100.00
2022-11-02T04:59:04.723Z,100.00
2022-11-02T05:01:35.222Z,100.00
2022-11-02T05:04:04.638Z,100.00
2022-11-02T05:06:33.671Z,100.00
2022-11-02T05:09:02.172Z,100.00
2022-11-02T05:11:30.398Z,100.00
2022-11-02T05:13:58.577Z,100.00
2022-11-02T05:16:26.680Z,100.00
2022-11-02T05:18:54.928Z,100.00
2022-11-02T05:21:23.438Z,100.00
2022-11-02T05:23:51.677Z,100.00
2022-11-02T05:26:19.458Z,100.00
2022-11-02T05:28:50.757Z,100.00
2022-11-02T05:31:18.674Z,100.00
2022-11-02T05:33:46.938Z,100.00
2022-11-02T05:36:17.808Z,100.00
2022-11-02T05:38:47.528Z,100.00
2022-11-02T05:41:15.557Z,100.00
2022-11-02T05:43:43.878Z,100.00
2022-11-02T05:46:16.057Z,100.00
2022-11-02T05:48:43.818Z,100.00
2022-11-02T05:51:11.619Z,100.00
2022-11-02T05:53:39.753Z,100.00
2022-11-02T05:56:10.628Z,100.00
2022-11-02T05:58:38.443Z,100.00
2022-11-02T06:01:08.799Z,100.00
2022-11-02T06:03:36.898Z,100.00
2022-11-02T06:06:08.200Z,100.00
2022-11-02T06:08:38.258Z,100.00
2022-11-02T06:11:11.929Z,100.00
2022-11-02T06:13:41.265Z,100.00
2022-11-02T06:16:11.929Z,100.00
2022-11-02T06:18:39.859Z,100.00
2022-11-02T06:21:07.888Z,100.00
2022-11-02T06:23:36.512Z,100.00
2022-11-02T06:26:04.891Z,100.00
2022-11-02T06:28:33.068Z,100.00
2022-11-02T06:31:00.932Z,100.00
2022-11-02T06:33:30.054Z,100.00
2022-11-02T06:35:58.200Z,100.00
2022-11-02T06:38:26.577Z,100.00
2022-11-02T06:40:56.433Z,100.00
2022-11-02T06:43:25.506Z,100.00
2022-11-02T06:45:58.449Z,100.00
2022-11-02T06:48:34.289Z,100.00
2022-11-02T06:51:05.295Z,100.00
2022-11-02T06:53:33.644Z,100.00
2022-11-02T06:56:01.714Z,100.00
2022-11-02T06:58:29.781Z,100.00
2022-11-02T07:01:02.969Z,100.00
2022-11-02T07:03:31.543Z,100.00
2022-11-02T07:05:59.931Z,100.00
2022-11-02T07:08:28.741Z,100.00
2022-11-02T07:10:57.406Z,100.00
2022-11-02T07:13:25.890Z,100.00
2022-11-02T07:15:54.891Z,100.00
2022-11-02T07:18:23.366Z,100.00
2022-11-02T07:20:51.329Z,100.00
2022-11-02T07:23:23.762Z,100.00
2022-11-02T07:25:52.181Z,100.00
2022-11-02T07:28:20.719Z,100.00
2022-11-02T07:30:48.864Z,100.00
2022-11-02T07:33:16.660Z,100.00
2022-11-02T07:35:45.032Z,100.00
2022-11-02T07:38:12.946Z,100.00
2022-11-02T07:40:40.799Z,100.00
2022-11-02T07:43:09.100Z,100.00
2022-11-02T07:45:52.981Z,100.00
2022-11-02T07:48:21.418Z,100.00
2022-11-02T07:50:49.172Z,100.00
2022-11-02T07:53:16.931Z,100.00
2022-11-02T07:55:44.804Z,100.00
2022-11-02T07:58:15.642Z,100.00
2022-11-02T08:00:43.940Z,100.00
2022-11-02T08:03:12.640Z,100.00
2022-11-02T08:05:43.205Z,100.00
2022-11-02T08:08:18.103Z,100.00
2022-11-02T08:10:47.892Z,100.00
2022-11-02T08:13:21.949Z,100.00
2022-11-02T08:15:51.473Z,100.00
2022-11-02T08:18:22.018Z,100.00
2022-11-02T08:20:50.874Z,100.00
2022-11-02T08:23:20.003Z,100.00
2022-11-02T08:25:49.272Z,100.00
2022-11-02T08:28:26.537Z,100.00
2022-11-02T08:30:54.689Z,100.00
2022-11-02T08:33:22.461Z,100.00
2022-11-02T08:35:50.904Z,100.00
2022-11-02T08:38:22.660Z,100.00
2022-11-02T08:40:50.514Z,100.00
2022-11-02T08:43:18.379Z,100.00
2022-11-02T08:48:34.403Z,100.00
2022-11-02T08:51:02.855Z,100.00
2022-11-02T08:53:30.751Z,100.00
2022-11-02T08:55:59.412Z,100.00
2022-11-02T08:58:27.617Z,100.00
2022-11-02T09:00:56.123Z,99.96
2022-11-02T09:03:27.272Z,99.67
2022-11-02T09:06:00.903Z,99.70
2022-11-02T09:08:30.403Z,99.40
2022-11-02T09:11:01.708Z,99.86
2022-11-02T09:13:30.039Z,99.35
2022-11-02T09:15:59.749Z,99.61
2022-11-02T09:18:28.056Z,99.73
2022-11-02T09:20:56.564Z,99.56
2022-11-02T09:23:24.598Z,98.97
2022-11-02T09:25:52.672Z,98.74
2022-11-02T09:28:20.541Z,98.28
2022-11-02T09:30:48.624Z,98.32
2022-11-02T09:33:16.664Z,98.42
2022-11-02T09:35:47.419Z,98.59
2022-11-02T09:38:18.372Z,97.96
2022-11-02T09:41:22.468Z,97.78
2022-11-02T09:44:00.142Z,97.76
2022-11-02T09:46:40.327Z,97.76
2022-11-02T09:49:14.268Z,97.26
2022-11-02T09:51:50.434Z,97.17
2022-11-02T09:54:35.967Z,96.69
2022-11-02T09:57:11.767Z,96.43
2022-11-02T09:59:41.072Z,96.01
2022-11-02T10:02:40.269Z,96.04
2022-11-02T10:05:11.285Z,96.22
2022-11-02T10:07:49.982Z,95.93
2022-11-02T10:10:38.594Z,96.04
2022-11-02T10:13:31.498Z,95.98
2022-11-02T10:16:12.071Z,96.04
2022-11-02T10:18:42.141Z,95.87
2022-11-02T10:21:24.882Z,95.49
2022-11-02T10:23:55.295Z,95.37
2022-11-02T10:26:28.198Z,95.22
2022-11-02T10:29:04.519Z,95.29
2022-11-02T10:31:36.122Z,95.06
2022-11-02T10:34:45.551Z,94.91
2022-11-02T10:37:18.311Z,95.83
2022-11-02T10:40:15.966Z,95.57
2022-11-02T10:42:59.393Z,94.80
2022-11-02T10:45:46.342Z,95.06
2022-11-02T10:48:32.915Z,94.92
2022-11-02T10:51:09.728Z,95.22
2022-11-02T10:53:42.616Z,94.91
2022-11-02T10:56:20.081Z,94.00
2022-11-02T10:58:57.178Z,93.75
2022-11-02T11:01:26.533Z,93.60
2022-11-02T11:03:59.072Z,93.01
2022-11-02T11:06:34.713Z,92.55
2022-11-02T11:09:16.293Z,92.13
2022-11-02T11:11:55.082Z,92.53
2022-11-02T11:20:33.362Z,92.92
2022-11-02T11:23:12.484Z,92.56
2022-11-02T11:25:41.592Z,92.12
2022-11-02T11:28:55.349Z,91.63
2022-11-02T11:31:24.425Z,90.99
2022-11-02T11:33:56.029Z,90.53
2022-11-02T11:36:33.468Z,90.06
2022-11-02T11:39:07.914Z,89.85
2022-11-02T11:41:41.392Z,88.97
2022-11-02T11:44:14.664Z,89.07
2022-11-02T11:46:56.376Z,88.75
2022-11-02T11:52:33.167Z,89.69
2022-11-02T11:55:19.052Z,89.22
2022-11-02T11:57:47.330Z,88.52
2022-11-02T12:00:29.079Z,88.55
2022-11-02T12:03:11.018Z,89.31
2022-11-02T12:05:48.508Z,89.43
2022-11-02T12:08:28.665Z,89.86
2022-11-02T12:11:02.576Z,90.18
2022-11-02T12:13:30.538Z,90.18
2022-11-02T12:16:10.694Z,90.15
2022-11-02T12:19:10.916Z,90.11
2022-11-02T12:21:58.663Z,90.08
2022-11-02T12:25:05.099Z,90.12
2022-11-02T12:27:48.283Z,90.01
2022-11-02T12:30:30.911Z,90.51
2022-11-02T12:33:35.560Z,90.13
2022-11-02T12:36:27.110Z,90.12
2022-11-02T12:39:08.551Z,90.34
2022-11-02T12:41:59.295Z,89.99
2022-11-02T12:44:27.367Z,90.10
2022-11-02T12:47:14.488Z,90.38
2022-11-02T12:50:05.387Z,90.15
2022-11-02T12:52:33.079Z,90.08
2022-11-02T12:55:05.021Z,90.25
2022-11-02T12:57:38.335Z,90.04
2022-11-02T13:00:19.248Z,89.40
2022-11-02T13:03:08.203Z,88.57
2022-11-02T13:05:41.173Z,89.47
2022-11-02T13:08:09.101Z,89.87
2022-11-02T13:10:48.237Z,90.12
2022-11-02T13:13:45.635Z,89.82
2022-11-02T13:16:16.881Z,89.86
2022-11-02T13:18:50.328Z,89.95
2022-11-02T13:21:38.462Z,89.87
2022-11-02T13:24:16.776Z,90.30
2022-11-02T13:26:53.221Z,90.42
2022-11-02T13:29:46.816Z,90.24
2022-11-02T13:32:37.994Z,90.39
2022-11-02T13:35:16.399Z,90.37
2022-11-02T13:38:00.792Z,90.47
2022-11-02T13:40:33.780Z,90.50
2022-11-02T13:43:21.900Z,90.68
2022-11-02T13:46:01.846Z,90.44
2022-11-02T13:48:55.334Z,90.36
2022-11-02T13:51:33.344Z,90.30
2022-11-02T13:54:13.392Z,90.10
2022-11-02T13:56:42.500Z,90.04
2022-11-02T13:59:20.603Z,89.80
2022-11-02T14:01:51.031Z,90.03
2022-11-02T14:04:20.421Z,90.10
2022-11-02T14:06:58.423Z,90.32
2022-11-02T14:09:28.543Z,90.45
2022-11-02T14:12:24.904Z,90.27
2022-11-02T14:15:15.534Z,90.44
2022-11-02T14:18:05.050Z,90.65
2022-11-02T14:20:38.506Z,90.81
2022-11-02T14:23:10.283Z,91.14
2022-11-02T14:25:53.238Z,91.14
2022-11-02T14:28:21.362Z,91.39
2022-11-02T14:30:57.818Z,91.62
2022-11-02T14:33:50.721Z,91.59
2022-11-02T14:36:19.710Z,91.88
2022-11-02T14:38:59.229Z,92.09
2022-11-02T14:41:52.032Z,92.25
2022-11-02T14:44:38.496Z,92.34
2022-11-02T14:47:10.907Z,92.59
2022-11-02T14:50:01.219Z,92.55
2022-11-02T14:52:36.142Z,92.21
2022-11-02T14:55:19.547Z,92.33
2022-11-02T14:58:18.816Z,92.17
2022-11-02T15:00:50.062Z,92.76
2022-11-02T15:03:41.378Z,92.81
2022-11-02T15:06:13.626Z,92.93
2022-11-02T15:09:04.297Z,92.77
2022-11-02T15:11:57.420Z,93.03
2022-11-02T15:14:41.671Z,93.12
2022-11-02T15:17:12.830Z,93.03
2022-11-02T15:19:51.987Z,92.95
2022-11-02T15:22:29.233Z,93.05
2022-11-02T15:25:05.903Z,92.96
2022-11-02T15:27:36.096Z,93.23
2022-11-02T15:30:13.841Z,93.59
2022-11-02T15:32:48.527Z,93.51
2022-11-02T15:35:21.128Z,93.59
2022-11-02T15:38:15.853Z,93.57
2022-11-02T15:40:47.879Z,93.57
2022-11-02T15:43:40.735Z,93.43
2022-11-02T15:46:55.008Z,93.51
2022-11-02T15:49:26.196Z,93.43
2022-11-02T15:52:15.502Z,93.58
2022-11-02T15:54:56.022Z,93.60
2022-11-02T15:58:03.138Z,93.67
2022-11-02T16:00:31.307Z,93.88
2022-11-02T16:03:02.828Z,93.81
2022-11-02T16:05:38.936Z,93.69
2022-11-02T16:08:25.253Z,93.82
2022-11-02T16:11:13.499Z,93.80
2022-11-02T16:13:55.579Z,93.89
2022-11-02T16:16:34.706Z,94.09
2022-11-02T16:19:04.318Z,94.38
2022-11-02T16:21:32.493Z,94.21
2022-11-02T16:24:00.558Z,94.18
2022-11-02T16:26:29.917Z,94.29
2022-11-02T16:29:00.126Z,94.04
2022-11-02T16:31:32.776Z,94.13
2022-11-02T16:34:15.894Z,94.29
2022-11-02T16:36:44.675Z,94.33
2022-11-02T16:39:27.034Z,94.39
2022-11-02T16:41:58.122Z,94.42
2022-11-02T16:44:31.741Z,94.37
2022-11-02T16:47:12.281Z,94.31
2022-11-02T16:49:52.511Z,94.37
2022-11-02T16:52:23.653Z,94.36
2022-11-02T16:54:51.657Z,94.39
2022-11-02T16:57:26.709Z,94.43
2022-11-02T16:59:57.442Z,94.60
2022-11-02T17:02:37.468Z,94.72
2022-11-02T17:05:21.016Z,94.65
2022-11-02T17:08:10.462Z,94.67
2022-11-02T17:10:39.187Z,94.79
2022-11-02T17:13:21.363Z,94.97
2022-11-02T17:15:51.552Z,94.88
2022-11-02T17:18:22.529Z,94.82
2022-11-02T17:21:12.209Z,95.02
2022-11-02T17:23:44.071Z,94.99
2022-11-02T17:26:27.299Z,94.84
2022-11-02T17:29:03.203Z,94.82
2022-11-02T17:31:38.795Z,94.80
2022-11-02T17:34:15.480Z,94.95
2022-11-02T17:36:45.173Z,95.03
2022-11-02T17:39:15.263Z,94.96
2022-11-02T17:42:10.805Z,95.02
2022-11-02T17:44:39.188Z,95.22
2022-11-02T17:47:18.725Z,95.42
2022-11-02T17:49:46.698Z,95.23
2022-11-02T17:52:16.562Z,95.21
2022-11-02T17:54:44.408Z,95.33
2022-11-02T17:57:14.692Z,95.32
2022-11-02T17:59:42.650Z,95.57
2022-11-02T18:02:15.655Z,95.46
2022-11-02T18:07:17.217Z,95.74
2022-11-02T18:09:45.491Z,95.73
2022-11-02T18:12:14.456Z,95.81
2022-11-02T18:14:42.830Z,95.89
2022-11-02T18:17:10.839Z,96.03
2022-11-02T18:19:39.013Z,95.93
2022-11-02T18:22:07.075Z,96.05
2022-11-02T18:24:34.866Z,96.12
2022-11-02T18:27:02.805Z,96.09
2022-11-02T18:29:30.642Z,96.08
2022-11-02T18:31:58.408Z,96.28
2022-11-02T18:34:26.347Z,96.34
2022-11-02T18:36:54.130Z,97.03
2022-11-02T18:39:21.939Z,96.55
2022-11-02T18:41:50.276Z,96.50
2022-11-02T18:44:18.409Z,96.67
2022-11-02T18:46:46.456Z,96.53
2022-11-02T18:49:14.833Z,96.43
2022-11-02T18:51:43.832Z,96.55
2022-11-02T18:54:12.272Z,96.67
2022-11-02T18:56:40.584Z,96.73
2022-11-02T18:59:08.477Z,96.66
2022-11-02T19:01:36.729Z,96.69
2022-11-02T19:04:05.211Z,96.84
2022-11-02T19:06:52.507Z,97.09
2022-11-02T19:09:23.875Z,97.24
2022-11-02T19:12:00.604Z,97.01
2022-11-02T19:14:40.417Z,97.20
2022-11-02T19:17:13.258Z,97.32
2022-11-02T19:19:43.157Z,97.34
2022-11-02T19:22:21.732Z,97.37
2022-11-02T19:24:50.805Z,97.48
2022-11-02T19:27:24.201Z,97.33
2022-11-02T19:29:52.893Z,97.46
2022-11-02T19:32:21.196Z,97.55
2022-11-02T19:34:49.366Z,97.75
2022-11-02T19:37:17.202Z,97.73
2022-11-02T19:39:45.171Z,97.89
2022-11-02T19:42:13.031Z,97.83
2022-11-02T19:44:43.013Z,97.86
2022-11-02T19:47:11.116Z,98.09
2022-11-02T19:49:39.083Z,97.98
2022-11-02T19:52:07.123Z,97.86
2022-11-02T19:54:35.338Z,97.74
2022-11-02T19:57:03.108Z,97.78
2022-11-02T19:59:31.167Z,97.98
2022-11-02T20:01:59.042Z,97.92
2022-11-02T20:04:27.318Z,98.00
2022-11-02T20:06:55.321Z,98.19
2022-11-02T20:09:25.813Z,98.32
2022-11-02T20:11:53.773Z,98.35
2022-11-02T20:14:21.951Z,98.38
2022-11-02T20:16:58.676Z,98.50
2022-11-02T20:19:38.667Z,98.44
2022-11-02T20:22:06.744Z,98.60
2022-11-02T20:24:34.817Z,98.62
2022-11-02T20:27:04.728Z,98.61
2022-11-02T20:29:32.643Z,98.70
2022-11-02T20:32:05.202Z,98.73
2022-11-02T20:34:33.242Z,98.89
2022-11-02T20:37:01.167Z,98.80
2022-11-02T20:39:29.079Z,98.74
2022-11-02T20:41:57.175Z,98.95
2022-11-02T20:44:25.289Z,98.88
2022-11-02T20:46:53.798Z,98.82
2022-11-02T20:49:44.232Z,98.75
2022-11-02T20:52:10.755Z,98.75
2022-11-02T20:54:39.071Z,98.82
2022-11-02T20:57:06.987Z,98.93
2022-11-02T20:59:34.772Z,98.93
2022-11-02T21:02:02.717Z,98.93
2022-11-02T21:04:30.886Z,98.84
2022-11-02T21:06:58.769Z,99.04
2022-11-02T21:09:26.614Z,99.15
2022-11-02T21:12:13.146Z,99.05
2022-11-02T21:14:41.036Z,98.99
2022-11-02T21:17:09.072Z,98.96
2022-11-02T21:19:36.991Z,99.04
2022-11-02T21:22:04.944Z,99.12
2022-11-02T21:24:33.677Z,99.11
2022-11-02T21:27:06.870Z,99.17
2022-11-02T21:29:35.081Z,99.24
2022-11-02T21:32:02.992Z,99.36
2022-11-02T21:34:30.977Z,99.31
2022-11-02T21:36:59.056Z,99.35
2022-11-02T21:39:27.534Z,99.35
2022-11-02T21:41:55.503Z,99.46
2022-11-02T21:44:25.140Z,99.60
2022-11-02T21:46:52.923Z,99.60
2022-11-02T21:49:20.992Z,99.64
2022-11-02T21:51:49.450Z,99.77
2022-11-02T21:54:19.886Z,99.87
2022-11-02T21:56:48.502Z,99.76
2022-11-02T21:59:16.465Z,99.69
2022-11-02T22:01:45.026Z,99.74
2022-11-02T22:04:21.549Z,99.81
2022-11-02T22:06:50.749Z,99.80
2022-11-02T22:09:19.114Z,99.88
2022-11-02T22:11:48.021Z,99.98
2022-11-02T22:14:16.200Z,99.94
2022-11-02T22:16:44.136Z,99.93
2022-11-02T22:19:13.954Z,99.90
2022-11-02T22:21:44.419Z,99.95
2022-11-02T22:24:12.579Z,99.99
2022-11-02T22:26:40.913Z,99.94
2022-11-02T22:29:09.389Z,100.00
2022-11-02T22:31:40.500Z,100.00
2022-11-02T22:34:11.105Z,100.00
2022-11-02T22:36:42.292Z,100.00
2022-11-02T22:39:12.880Z,100.00
2022-11-02T22:41:48.217Z,100.00
2022-11-02T22:44:18.769Z,100.00
2022-11-02T22:46:49.767Z,100.00
2022-11-02T22:49:18.676Z,100.00
2022-11-02T22:51:48.901Z,100.00
2022-11-02T22:54:19.223Z,100.00
2022-11-02T22:56:48.587Z,100.00
2022-11-02T22:59:16.490Z,100.00
2022-11-02T23:01:44.381Z,100.00
2022-11-02T23:04:13.231Z,100.00
2022-11-02T23:06:41.422Z,100.00
2022-11-02T23:09:10.812Z,100.00
2022-11-02T23:11:38.663Z,100.00
2022-11-02T23:14:09.936Z,100.00
2022-11-02T23:16:43.550Z,100.00
2022-11-02T23:19:27.130Z,100.00
2022-11-02T23:22:28.418Z,100.00
2022-11-02T23:25:13.915Z,100.00
2022-11-02T23:28:02.041Z,100.00
2022-11-02T23:30:51.510Z,100.00
2022-11-02T23:33:20.645Z,100.00
2022-11-02T23:36:07.928Z,100.00
2022-11-02T23:38:54.546Z,100.00
2022-11-02T23:41:22.496Z,100.00
2022-11-02T23:43:50.579Z,100.00
2022-11-02T23:46:18.440Z,100.00
2022-11-02T23:48:49.637Z,100.00
2022-11-02T23:51:39.362Z,100.00
2022-11-02T23:54:26.687Z,100.00
2022-11-02T23:56:54.652Z,100.00
2022-11-02T23:59:22.521Z,100.00
